sensor_id;sensor_type;location;lat;lon;timestamp;P1;durP1;ratioP1;P2;durP2;ratioP2
47089;SDS011;32840;52.516;13.294;2023-04-15T00:00:26;30.30;;;21.20;;
47089;SDS011;32840;52.516;13.294;2023-04-15T00:03:13;31.67;;;23.02;;
47089;SDS011;32840;52.516;13.294;2023-04-15T00:05:58;32.95;;;22.20;;
47089;SDS011;32840;52.516;13.294;2023-04-15T00:08:43;30.55;;;22.10;;
47089;SDS011;32840;52.516;13.294;2023-04-15T00:11:29;33.25;;;23.30;;
47089;SDS011;32840;52.516;13.294;2023-04-15T00:14:15;35.05;;;23.73;;
47089;SDS011;32840;52.516;13.294;2023-04-15T00:17:00;36.10;;;25.70;;
47089;SDS011;32840;52.516;13.294;2023-04-15T00:19:44;34.08;;;23.17;;
47089;SDS011;32840;52.516;13.294;2023-04-15T00:22:29;34.80;;;24.88;;
47089;SDS011;32840;52.516;13.294;2023-04-15T00:25:14;35.45;;;23.85;;
47089;SDS011;32840;52.516;13.294;2023-04-15T00:28:00;38.55;;;25.70;;
47089;SDS011;32840;52.516;13.294;2023-04-15T00:30:44;34.90;;;24.92;;
47089;SDS011;32840;52.516;13.294;2023-04-15T00:33:29;37.33;;;25.63;;
47089;SDS011;32840;52.516;13.294;2023-04-15T00:36:14;38.08;;;25.23;;
47089;SDS011;32840;52.516;13.294;2023-04-15T00:38:59;38.22;;;26.63;;
47089;SDS011;32840;52.516;13.294;2023-04-15T00:41:44;36.95;;;26.25;;
47089;SDS011;32840;52.516;13.294;2023-04-15T00:44:30;38.38;;;26.05;;
47089;SDS011;32840;52.516;13.294;2023-04-15T00:47:15;37.75;;;25.65;;
47089;SDS011;32840;52.516;13.294;2023-04-15T00:50:02;38.97;;;26.23;;
47089;SDS011;32840;52.516;13.294;2023-04-15T00:52:48;41.00;;;27.75;;
47089;SDS011;32840;52.516;13.294;2023-04-15T00:55:32;41.03;;;27.65;;
47089;SDS011;32840;52.516;13.294;2023-04-15T00:58:17;41.55;;;27.60;;
47089;SDS011;32840;52.516;13.294;2023-04-15T01:01:03;40.90;;;27.58;;
47089;SDS011;32840;52.516;13.294;2023-04-15T01:03:49;41.80;;;27.45;;
47089;SDS011;32840;52.516;13.294;2023-04-15T01:06:34;41.40;;;27.98;;
47089;SDS011;32840;52.516;13.294;2023-04-15T01:09:19;41.55;;;28.23;;
47089;SDS011;32840;52.516;13.294;2023-04-15T01:12:05;43.00;;;28.00;;
47089;SDS011;32840;52.516;13.294;2023-04-15T01:14:54;43.05;;;28.45;;
47089;SDS011;32840;52.516;13.294;2023-04-15T01:17:39;41.83;;;27.60;;
47089;SDS011;32840;52.516;13.294;2023-04-15T01:20:25;45.55;;;30.33;;
47089;SDS011;32840;52.516;13.294;2023-04-15T01:23:10;46.40;;;29.27;;
47089;SDS011;32840;52.516;13.294;2023-04-15T01:25:56;42.05;;;27.92;;
47089;SDS011;32840;52.516;13.294;2023-04-15T01:28:42;44.65;;;28.65;;
47089;SDS011;32840;52.516;13.294;2023-04-15T01:31:28;42.85;;;28.60;;
47089;SDS011;32840;52.516;13.294;2023-04-15T01:34:13;46.22;;;30.17;;
47089;SDS011;32840;52.516;13.294;2023-04-15T01:36:57;43.35;;;29.17;;
47089;SDS011;32840;52.516;13.294;2023-04-15T01:39:42;44.80;;;30.25;;
47089;SDS011;32840;52.516;13.294;2023-04-15T01:42:27;47.88;;;32.35;;
47089;SDS011;32840;52.516;13.294;2023-04-15T01:45:12;50.50;;;32.08;;
47089;SDS011;32840;52.516;13.294;2023-04-15T01:47:57;47.65;;;32.03;;
47089;SDS011;32840;52.516;13.294;2023-04-15T01:50:42;47.53;;;31.00;;
47089;SDS011;32840;52.516;13.294;2023-04-15T01:53:27;47.20;;;30.98;;
47089;SDS011;32840;52.516;13.294;2023-04-15T01:56:12;46.40;;;30.40;;
47089;SDS011;32840;52.516;13.294;2023-04-15T01:58:57;46.03;;;30.70;;
47089;SDS011;32840;52.516;13.294;2023-04-15T02:01:42;51.67;;;31.38;;
47089;SDS011;32840;52.516;13.294;2023-04-15T02:04:28;50.50;;;31.45;;
47089;SDS011;32840;52.516;13.294;2023-04-15T02:07:13;48.95;;;31.25;;
47089;SDS011;32840;52.516;13.294;2023-04-15T02:09:57;50.85;;;32.47;;
47089;SDS011;32840;52.516;13.294;2023-04-15T02:12:42;48.67;;;30.98;;
47089;SDS011;32840;52.516;13.294;2023-04-15T02:15:27;50.17;;;32.25;;
47089;SDS011;32840;52.516;13.294;2023-04-15T02:18:14;47.35;;;30.92;;
47089;SDS011;32840;52.516;13.294;2023-04-15T02:21:00;50.33;;;31.65;;
47089;SDS011;32840;52.516;13.294;2023-04-15T02:23:45;50.03;;;32.45;;
47089;SDS011;32840;52.516;13.294;2023-04-15T02:26:31;53.03;;;33.70;;
47089;SDS011;32840;52.516;13.294;2023-04-15T02:29:16;46.72;;;30.30;;
47089;SDS011;32840;52.516;13.294;2023-04-15T02:32:01;48.53;;;32.08;;
47089;SDS011;32840;52.516;13.294;2023-04-15T02:34:46;52.08;;;31.65;;
47089;SDS011;32840;52.516;13.294;2023-04-15T02:37:31;53.88;;;33.13;;
47089;SDS011;32840;52.516;13.294;2023-04-15T02:40:16;51.25;;;32.30;;
47089;SDS011;32840;52.516;13.294;2023-04-15T02:43:03;51.58;;;31.73;;
47089;SDS011;32840;52.516;13.294;2023-04-15T02:45:50;50.55;;;32.75;;
47089;SDS011;32840;52.516;13.294;2023-04-15T02:48:35;49.15;;;32.22;;
47089;SDS011;32840;52.516;13.294;2023-04-15T02:51:20;50.55;;;31.15;;
47089;SDS011;32840;52.516;13.294;2023-04-15T02:54:09;48.45;;;29.85;;
47089;SDS011;32840;52.516;13.294;2023-04-15T02:56:53;49.33;;;32.25;;
47089;SDS011;32840;52.516;13.294;2023-04-15T02:59:39;51.90;;;31.65;;
47089;SDS011;32840;52.516;13.294;2023-04-15T03:02:24;50.33;;;31.73;;
47089;SDS011;32840;52.516;13.294;2023-04-15T03:05:12;51.85;;;32.20;;
47089;SDS011;32840;52.516;13.294;2023-04-15T03:07:57;49.47;;;32.05;;
47089;SDS011;32840;52.516;13.294;2023-04-15T03:10:44;50.13;;;31.77;;
47089;SDS011;32840;52.516;13.294;2023-04-15T03:13:29;48.50;;;31.42;;
47089;SDS011;32840;52.516;13.294;2023-04-15T03:16:14;54.40;;;31.48;;
47089;SDS011;32840;52.516;13.294;2023-04-15T03:18:59;49.83;;;30.52;;
47089;SDS011;32840;52.516;13.294;2023-04-15T03:21:44;45.25;;;29.63;;
47089;SDS011;32840;52.516;13.294;2023-04-15T03:24:28;45.97;;;30.25;;
47089;SDS011;32840;52.516;13.294;2023-04-15T03:27:14;49.92;;;31.48;;
47089;SDS011;32840;52.516;13.294;2023-04-15T03:29:58;47.63;;;30.23;;
47089;SDS011;32840;52.516;13.294;2023-04-15T03:32:45;48.33;;;30.70;;
47089;SDS011;32840;52.516;13.294;2023-04-15T03:35:30;51.55;;;31.23;;
47089;SDS011;32840;52.516;13.294;2023-04-15T03:38:16;44.63;;;28.75;;
47089;SDS011;32840;52.516;13.294;2023-04-15T03:41:01;46.80;;;29.83;;
47089;SDS011;32840;52.516;13.294;2023-04-15T03:43:47;49.83;;;30.98;;
47089;SDS011;32840;52.516;13.294;2023-04-15T03:46:35;48.65;;;29.83;;
47089;SDS011;32840;52.516;13.294;2023-04-15T03:49:21;52.10;;;31.77;;
47089;SDS011;32840;52.516;13.294;2023-04-15T03:52:06;50.22;;;31.17;;
47089;SDS011;32840;52.516;13.294;2023-04-15T03:54:51;46.40;;;29.42;;
47089;SDS011;32840;52.516;13.294;2023-04-15T03:57:36;45.47;;;29.08;;
47089;SDS011;32840;52.516;13.294;2023-04-15T04:00:22;47.47;;;29.95;;
47089;SDS011;32840;52.516;13.294;2023-04-15T04:03:07;47.45;;;31.17;;
47089;SDS011;32840;52.516;13.294;2023-04-15T04:05:53;44.88;;;29.17;;
47089;SDS011;32840;52.516;13.294;2023-04-15T04:08:38;48.58;;;29.85;;
47089;SDS011;32840;52.516;13.294;2023-04-15T04:11:22;47.60;;;29.90;;
47089;SDS011;32840;52.516;13.294;2023-04-15T04:14:07;45.30;;;29.05;;
47089;SDS011;32840;52.516;13.294;2023-04-15T04:16:54;42.60;;;27.42;;
47089;SDS011;32840;52.516;13.294;2023-04-15T04:19:39;45.28;;;28.83;;
47089;SDS011;32840;52.516;13.294;2023-04-15T04:22:24;43.63;;;29.13;;
47089;SDS011;32840;52.516;13.294;2023-04-15T04:25:09;48.10;;;29.75;;
47089;SDS011;32840;52.516;13.294;2023-04-15T04:27:55;43.95;;;28.27;;
47089;SDS011;32840;52.516;13.294;2023-04-15T04:30:41;43.28;;;27.77;;
47089;SDS011;32840;52.516;13.294;2023-04-15T04:33:29;46.65;;;29.00;;
47089;SDS011;32840;52.516;13.294;2023-04-15T04:36:14;47.65;;;31.25;;
47089;SDS011;32840;52.516;13.294;2023-04-15T04:38:59;41.55;;;27.95;;
47089;SDS011;32840;52.516;13.294;2023-04-15T04:41:45;41.38;;;27.60;;
47089;SDS011;32840;52.516;13.294;2023-04-15T04:44:30;43.00;;;27.80;;
47089;SDS011;32840;52.516;13.294;2023-04-15T04:47:15;42.95;;;28.25;;
47089;SDS011;32840;52.516;13.294;2023-04-15T04:50:01;53.13;;;34.40;;
47089;SDS011;32840;52.516;13.294;2023-04-15T04:52:46;60.38;;;38.40;;
47089;SDS011;32840;52.516;13.294;2023-04-15T04:55:31;39.75;;;27.05;;
47089;SDS011;32840;52.516;13.294;2023-04-15T04:58:16;39.42;;;26.65;;
47089;SDS011;32840;52.516;13.294;2023-04-15T05:01:01;41.05;;;27.50;;
47089;SDS011;32840;52.516;13.294;2023-04-15T05:03:46;39.55;;;26.40;;
47089;SDS011;32840;52.516;13.294;2023-04-15T05:06:31;40.28;;;27.00;;
47089;SDS011;32840;52.516;13.294;2023-04-15T05:09:16;39.97;;;26.35;;
47089;SDS011;32840;52.516;13.294;2023-04-15T05:12:02;39.58;;;26.25;;
47089;SDS011;32840;52.516;13.294;2023-04-15T05:14:50;38.03;;;25.42;;
47089;SDS011;32840;52.516;13.294;2023-04-15T05:17:38;37.47;;;25.95;;
47089;SDS011;32840;52.516;13.294;2023-04-15T05:20:24;35.03;;;25.00;;
47089;SDS011;32840;52.516;13.294;2023-04-15T05:23:09;40.35;;;26.00;;
47089;SDS011;32840;52.516;13.294;2023-04-15T05:25:54;37.67;;;25.75;;
47089;SDS011;32840;52.516;13.294;2023-04-15T05:28:39;36.55;;;25.67;;
47089;SDS011;32840;52.516;13.294;2023-04-15T05:31:24;34.55;;;23.92;;
47089;SDS011;32840;52.516;13.294;2023-04-15T05:34:09;37.33;;;24.85;;
47089;SDS011;32840;52.516;13.294;2023-04-15T05:36:59;36.30;;;25.58;;
47089;SDS011;32840;52.516;13.294;2023-04-15T05:39:44;32.60;;;24.15;;
47089;SDS011;32840;52.516;13.294;2023-04-15T05:42:29;36.47;;;24.95;;
47089;SDS011;32840;52.516;13.294;2023-04-15T05:45:19;33.63;;;24.05;;
47089;SDS011;32840;52.516;13.294;2023-04-15T05:48:06;30.00;;;22.58;;
47089;SDS011;32840;52.516;13.294;2023-04-15T05:50:52;37.83;;;24.88;;
47089;SDS011;32840;52.516;13.294;2023-04-15T05:53:37;32.15;;;23.08;;
47089;SDS011;32840;52.516;13.294;2023-04-15T05:56:23;33.03;;;23.08;;
47089;SDS011;32840;52.516;13.294;2023-04-15T05:59:10;34.42;;;22.85;;
47089;SDS011;32840;52.516;13.294;2023-04-15T06:01:56;36.38;;;23.83;;
47089;SDS011;32840;52.516;13.294;2023-04-15T06:04:40;32.80;;;23.83;;
47089;SDS011;32840;52.516;13.294;2023-04-15T06:07:25;31.70;;;22.77;;
47089;SDS011;32840;52.516;13.294;2023-04-15T06:10:10;33.10;;;22.75;;
47089;SDS011;32840;52.516;13.294;2023-04-15T06:12:55;33.67;;;23.52;;
47089;SDS011;32840;52.516;13.294;2023-04-15T06:15:42;29.83;;;22.15;;
47089;SDS011;32840;52.516;13.294;2023-04-15T06:18:27;32.00;;;24.60;;
47089;SDS011;32840;52.516;13.294;2023-04-15T06:21:12;32.53;;;22.13;;
47089;SDS011;32840;52.516;13.294;2023-04-15T06:23:57;28.10;;;21.35;;
47089;SDS011;32840;52.516;13.294;2023-04-15T06:26:46;27.38;;;20.77;;
47089;SDS011;32840;52.516;13.294;2023-04-15T06:29:30;28.90;;;20.65;;
47089;SDS011;32840;52.516;13.294;2023-04-15T06:32:15;29.00;;;20.35;;
47089;SDS011;32840;52.516;13.294;2023-04-15T06:35:00;27.95;;;19.63;;
47089;SDS011;32840;52.516;13.294;2023-04-15T06:37:48;25.55;;;19.45;;
47089;SDS011;32840;52.516;13.294;2023-04-15T06:40:32;26.33;;;19.08;;
47089;SDS011;32840;52.516;13.294;2023-04-15T06:43:20;26.10;;;18.80;;
47089;SDS011;32840;52.516;13.294;2023-04-15T06:46:05;24.00;;;18.02;;
47089;SDS011;32840;52.516;13.294;2023-04-15T06:48:50;27.33;;;17.77;;
47089;SDS011;32840;52.516;13.294;2023-04-15T06:51:35;23.17;;;17.05;;
47089;SDS011;32840;52.516;13.294;2023-04-15T06:54:21;22.58;;;16.77;;
47089;SDS011;32840;52.516;13.294;2023-04-15T06:57:07;23.63;;;16.58;;
47089;SDS011;32840;52.516;13.294;2023-04-15T06:59:52;24.30;;;16.80;;
47089;SDS011;32840;52.516;13.294;2023-04-15T07:02:37;22.40;;;17.23;;
47089;SDS011;32840;52.516;13.294;2023-04-15T07:05:24;22.40;;;16.85;;
47089;SDS011;32840;52.516;13.294;2023-04-15T07:08:09;24.45;;;17.98;;
47089;SDS011;32840;52.516;13.294;2023-04-15T07:10:54;24.92;;;17.30;;
47089;SDS011;32840;52.516;13.294;2023-04-15T07:13:39;19.55;;;15.85;;
47089;SDS011;32840;52.516;13.294;2023-04-15T07:16:24;20.13;;;16.65;;
47089;SDS011;32840;52.516;13.294;2023-04-15T07:19:09;20.02;;;14.93;;
47089;SDS011;32840;52.516;13.294;2023-04-15T07:21:53;17.67;;;13.80;;
47089;SDS011;32840;52.516;13.294;2023-04-15T07:24:40;19.50;;;14.27;;
47089;SDS011;32840;52.516;13.294;2023-04-15T07:27:25;19.05;;;13.98;;
47089;SDS011;32840;52.516;13.294;2023-04-15T07:30:10;19.23;;;14.35;;
47089;SDS011;32840;52.516;13.294;2023-04-15T07:32:56;19.92;;;14.88;;
47089;SDS011;32840;52.516;13.294;2023-04-15T07:35:41;21.88;;;14.60;;
47089;SDS011;32840;52.516;13.294;2023-04-15T07:38:26;22.40;;;15.25;;
47089;SDS011;32840;52.516;13.294;2023-04-15T07:41:13;23.88;;;18.30;;
47089;SDS011;32840;52.516;13.294;2023-04-15T07:43:59;18.58;;;13.75;;
47089;SDS011;32840;52.516;13.294;2023-04-15T07:46:44;16.50;;;13.65;;
47089;SDS011;32840;52.516;13.294;2023-04-15T07:49:28;17.23;;;14.02;;
47089;SDS011;32840;52.516;13.294;2023-04-15T07:52:13;21.48;;;14.30;;
47089;SDS011;32840;52.516;13.294;2023-04-15T07:54:58;18.98;;;14.50;;
47089;SDS011;32840;52.516;13.294;2023-04-15T07:57:43;19.05;;;15.05;;
47089;SDS011;32840;52.516;13.294;2023-04-15T08:00:28;20.63;;;15.23;;
47089;SDS011;32840;52.516;13.294;2023-04-15T08:03:15;22.58;;;14.82;;
47089;SDS011;32840;52.516;13.294;2023-04-15T08:06:00;18.38;;;14.18;;
47089;SDS011;32840;52.516;13.294;2023-04-15T08:08:45;18.70;;;14.82;;
47089;SDS011;32840;52.516;13.294;2023-04-15T08:11:31;18.42;;;14.48;;
47089;SDS011;32840;52.516;13.294;2023-04-15T08:14:17;19.85;;;14.70;;
47089;SDS011;32840;52.516;13.294;2023-04-15T08:17:03;18.23;;;15.32;;
47089;SDS011;32840;52.516;13.294;2023-04-15T08:19:49;18.35;;;15.35;;
47089;SDS011;32840;52.516;13.294;2023-04-15T08:22:33;19.02;;;15.52;;
47089;SDS011;32840;52.516;13.294;2023-04-15T08:25:20;19.48;;;15.90;;
47089;SDS011;32840;52.516;13.294;2023-04-15T08:28:04;18.60;;;15.30;;
47089;SDS011;32840;52.516;13.294;2023-04-15T08:30:51;21.13;;;15.95;;
47089;SDS011;32840;52.516;13.294;2023-04-15T08:33:36;20.33;;;16.15;;
47089;SDS011;32840;52.516;13.294;2023-04-15T08:36:21;34.58;;;23.17;;
47089;SDS011;32840;52.516;13.294;2023-04-15T08:39:06;21.85;;;17.25;;
47089;SDS011;32840;52.516;13.294;2023-04-15T08:41:59;19.20;;;16.38;;
47089;SDS011;32840;52.516;13.294;2023-04-15T08:44:46;22.88;;;16.55;;
47089;SDS011;32840;52.516;13.294;2023-04-15T08:47:33;21.50;;;18.02;;
47089;SDS011;32840;52.516;13.294;2023-04-15T08:50:21;22.35;;;17.08;;
47089;SDS011;32840;52.516;13.294;2023-04-15T08:53:11;23.52;;;18.42;;
47089;SDS011;32840;52.516;13.294;2023-04-15T08:55:57;21.52;;;17.50;;
47089;SDS011;32840;52.516;13.294;2023-04-15T08:58:48;24.48;;;18.45;;
47089;SDS011;32840;52.516;13.294;2023-04-15T09:01:36;21.48;;;17.40;;
47089;SDS011;32840;52.516;13.294;2023-04-15T09:04:21;23.70;;;18.88;;
47089;SDS011;32840;52.516;13.294;2023-04-15T09:07:06;21.17;;;17.77;;
47089;SDS011;32840;52.516;13.294;2023-04-15T09:09:51;24.77;;;19.02;;
47089;SDS011;32840;52.516;13.294;2023-04-15T09:12:36;23.65;;;18.50;;
47089;SDS011;32840;52.516;13.294;2023-04-15T09:15:21;21.00;;;16.65;;
47089;SDS011;32840;52.516;13.294;2023-04-15T09:18:10;22.42;;;16.48;;
47089;SDS011;32840;52.516;13.294;2023-04-15T09:21:03;20.70;;;16.58;;
47089;SDS011;32840;52.516;13.294;2023-04-15T09:23:56;21.65;;;16.70;;
47089;SDS011;32840;52.516;13.294;2023-04-15T09:26:42;23.05;;;18.05;;
47089;SDS011;32840;52.516;13.294;2023-04-15T09:29:28;21.02;;;17.17;;
47089;SDS011;32840;52.516;13.294;2023-04-15T09:32:14;23.35;;;17.52;;
47089;SDS011;32840;52.516;13.294;2023-04-15T09:35:09;22.25;;;17.58;;
47089;SDS011;32840;52.516;13.294;2023-04-15T09:38:05;25.63;;;19.00;;
47089;SDS011;32840;52.516;13.294;2023-04-15T09:40:52;25.48;;;19.20;;
47089;SDS011;32840;52.516;13.294;2023-04-15T09:43:39;22.73;;;18.27;;
47089;SDS011;32840;52.516;13.294;2023-04-15T09:46:39;22.80;;;17.80;;
47089;SDS011;32840;52.516;13.294;2023-04-15T09:49:25;23.85;;;18.27;;
47089;SDS011;32840;52.516;13.294;2023-04-15T09:52:14;20.83;;;18.00;;
47089;SDS011;32840;52.516;13.294;2023-04-15T09:55:01;21.88;;;17.50;;
47089;SDS011;32840;52.516;13.294;2023-04-15T09:57:46;19.20;;;15.88;;
47089;SDS011;32840;52.516;13.294;2023-04-15T10:00:32;23.10;;;18.25;;
47089;SDS011;32840;52.516;13.294;2023-04-15T10:03:21;18.73;;;15.90;;
47089;SDS011;32840;52.516;13.294;2023-04-15T10:06:10;21.80;;;17.77;;
47089;SDS011;32840;52.516;13.294;2023-04-15T10:08:58;19.95;;;17.15;;
47089;SDS011;32840;52.516;13.294;2023-04-15T10:11:46;23.27;;;18.67;;
47089;SDS011;32840;52.516;13.294;2023-04-15T10:14:35;20.17;;;16.38;;
47089;SDS011;32840;52.516;13.294;2023-04-15T10:17:25;19.77;;;16.38;;
47089;SDS011;32840;52.516;13.294;2023-04-15T10:20:13;21.42;;;16.95;;
47089;SDS011;32840;52.516;13.294;2023-04-15T10:23:00;20.85;;;16.58;;
47089;SDS011;32840;52.516;13.294;2023-04-15T10:25:45;22.60;;;17.33;;
47089;SDS011;32840;52.516;13.294;2023-04-15T10:28:38;24.10;;;18.85;;
47089;SDS011;32840;52.516;13.294;2023-04-15T10:31:27;24.55;;;19.10;;
47089;SDS011;32840;52.516;13.294;2023-04-15T10:34:12;20.85;;;16.25;;
47089;SDS011;32840;52.516;13.294;2023-04-15T10:37:03;19.95;;;17.48;;
47089;SDS011;32840;52.516;13.294;2023-04-15T10:39:48;23.30;;;17.38;;
47089;SDS011;32840;52.516;13.294;2023-04-15T10:42:34;28.17;;;22.30;;
47089;SDS011;32840;52.516;13.294;2023-04-15T10:45:19;21.15;;;17.10;;
47089;SDS011;32840;52.516;13.294;2023-04-15T10:48:05;22.17;;;16.63;;
47089;SDS011;32840;52.516;13.294;2023-04-15T10:50:55;20.70;;;17.00;;
47089;SDS011;32840;52.516;13.294;2023-04-15T10:53:41;18.45;;;15.68;;
47089;SDS011;32840;52.516;13.294;2023-04-15T10:56:29;20.27;;;16.48;;
47089;SDS011;32840;52.516;13.294;2023-04-15T10:59:15;20.50;;;17.10;;
47089;SDS011;32840;52.516;13.294;2023-04-15T11:02:01;22.23;;;17.05;;
47089;SDS011;32840;52.516;13.294;2023-04-15T11:04:51;20.83;;;16.13;;
47089;SDS011;32840;52.516;13.294;2023-04-15T11:13:19;18.40;;;15.55;;
47089;SDS011;32840;52.516;13.294;2023-04-15T11:16:05;19.20;;;16.83;;
47089;SDS011;32840;52.516;13.294;2023-04-15T11:18:54;20.45;;;17.15;;
47089;SDS011;32840;52.516;13.294;2023-04-15T11:21:39;21.02;;;17.20;;
47089;SDS011;32840;52.516;13.294;2023-04-15T11:24:24;21.88;;;16.88;;
47089;SDS011;32840;52.516;13.294;2023-04-15T11:27:21;19.15;;;15.73;;
47089;SDS011;32840;52.516;13.294;2023-04-15T11:30:17;21.70;;;16.70;;
47089;SDS011;32840;52.516;13.294;2023-04-15T11:33:07;21.52;;;16.60;;
47089;SDS011;32840;52.516;13.294;2023-04-15T11:35:53;21.05;;;16.95;;
47089;SDS011;32840;52.516;13.294;2023-04-15T11:38:42;19.85;;;16.27;;
47089;SDS011;32840;52.516;13.294;2023-04-15T11:41:27;20.10;;;16.25;;
47089;SDS011;32840;52.516;13.294;2023-04-15T11:44:16;31.38;;;21.63;;
47089;SDS011;32840;52.516;13.294;2023-04-15T11:47:01;19.45;;;16.08;;
47089;SDS011;32840;52.516;13.294;2023-04-15T11:50:26;19.67;;;15.27;;
47089;SDS011;32840;52.516;13.294;2023-04-15T11:53:11;18.50;;;15.52;;
47089;SDS011;32840;52.516;13.294;2023-04-15T11:55:57;20.02;;;15.15;;
47089;SDS011;32840;52.516;13.294;2023-04-15T11:58:42;19.08;;;16.13;;
47089;SDS011;32840;52.516;13.294;2023-04-15T12:01:30;18.27;;;15.20;;
47089;SDS011;32840;52.516;13.294;2023-04-15T12:04:16;20.85;;;14.68;;
47089;SDS011;32840;52.516;13.294;2023-04-15T12:07:05;18.40;;;15.00;;
47089;SDS011;32840;52.516;13.294;2023-04-15T12:09:55;18.48;;;14.63;;
47089;SDS011;32840;52.516;13.294;2023-04-15T12:12:40;18.60;;;14.30;;
47089;SDS011;32840;52.516;13.294;2023-04-15T12:15:25;21.77;;;15.68;;
47089;SDS011;32840;52.516;13.294;2023-04-15T12:21:54;21.83;;;16.95;;
47089;SDS011;32840;52.516;13.294;2023-04-15T12:24:42;20.00;;;15.43;;
47089;SDS011;32840;52.516;13.294;2023-04-15T12:27:31;23.90;;;16.20;;
47089;SDS011;32840;52.516;13.294;2023-04-15T12:30:16;19.33;;;16.13;;
47089;SDS011;32840;52.516;13.294;2023-04-15T12:33:01;30.88;;;23.00;;
47089;SDS011;32840;52.516;13.294;2023-04-15T12:35:46;18.48;;;16.02;;
47089;SDS011;32840;52.516;13.294;2023-04-15T12:38:32;17.20;;;14.07;;
47089;SDS011;32840;52.516;13.294;2023-04-15T12:41:17;16.30;;;14.15;;
47089;SDS011;32840;52.516;13.294;2023-04-15T12:44:03;16.20;;;13.07;;
47089;SDS011;32840;52.516;13.294;2023-04-15T12:46:48;28.98;;;23.98;;
47089;SDS011;32840;52.516;13.294;2023-04-15T12:49:36;19.08;;;13.57;;
47089;SDS011;32840;52.516;13.294;2023-04-15T12:52:22;15.60;;;12.50;;
47089;SDS011;32840;52.516;13.294;2023-04-15T12:55:08;16.17;;;13.60;;
47089;SDS011;32840;52.516;13.294;2023-04-15T12:57:52;17.67;;;14.13;;
47089;SDS011;32840;52.516;13.294;2023-04-15T13:00:37;15.52;;;12.45;;
47089;SDS011;32840;52.516;13.294;2023-04-15T13:03:24;17.55;;;15.07;;
47089;SDS011;32840;52.516;13.294;2023-04-15T13:06:10;16.20;;;14.18;;
47089;SDS011;32840;52.516;13.294;2023-04-15T13:08:55;16.17;;;13.70;;
47089;SDS011;32840;52.516;13.294;2023-04-15T13:11:40;17.10;;;14.30;;
47089;SDS011;32840;52.516;13.294;2023-04-15T13:14:25;20.45;;;15.13;;
47089;SDS011;32840;52.516;13.294;2023-04-15T13:17:10;17.25;;;13.85;;
47089;SDS011;32840;52.516;13.294;2023-04-15T13:19:54;18.15;;;14.20;;
47089;SDS011;32840;52.516;13.294;2023-04-15T13:22:39;18.85;;;14.05;;
47089;SDS011;32840;52.516;13.294;2023-04-15T13:25:24;19.83;;;16.05;;
47089;SDS011;32840;52.516;13.294;2023-04-15T13:28:10;17.92;;;13.77;;
47089;SDS011;32840;52.516;13.294;2023-04-15T13:30:55;14.68;;;13.00;;
47089;SDS011;32840;52.516;13.294;2023-04-15T13:33:40;17.90;;;14.75;;
47089;SDS011;32840;52.516;13.294;2023-04-15T13:36:25;16.05;;;12.57;;
47089;SDS011;32840;52.516;13.294;2023-04-15T13:39:10;14.68;;;12.38;;
47089;SDS011;32840;52.516;13.294;2023-04-15T13:41:55;15.02;;;11.68;;
47089;SDS011;32840;52.516;13.294;2023-04-15T13:44:40;13.43;;;11.52;;
47089;SDS011;32840;52.516;13.294;2023-04-15T13:47:25;15.80;;;11.52;;
47089;SDS011;32840;52.516;13.294;2023-04-15T13:50:10;12.85;;;10.98;;
47089;SDS011;32840;52.516;13.294;2023-04-15T13:52:57;14.02;;;12.55;;
47089;SDS011;32840;52.516;13.294;2023-04-15T13:55:42;13.27;;;11.35;;
47089;SDS011;32840;52.516;13.294;2023-04-15T13:58:29;17.73;;;13.13;;
47089;SDS011;32840;52.516;13.294;2023-04-15T14:01:14;14.20;;;12.05;;
47089;SDS011;32840;52.516;13.294;2023-04-15T14:04:00;18.38;;;13.70;;
47089;SDS011;32840;52.516;13.294;2023-04-15T14:06:44;16.33;;;13.48;;
47089;SDS011;32840;52.516;13.294;2023-04-15T14:09:29;14.18;;;12.18;;
47089;SDS011;32840;52.516;13.294;2023-04-15T14:12:14;18.10;;;13.75;;
47089;SDS011;32840;52.516;13.294;2023-04-15T14:14:59;16.75;;;13.35;;
47089;SDS011;32840;52.516;13.294;2023-04-15T14:17:44;16.70;;;13.88;;
47089;SDS011;32840;52.516;13.294;2023-04-15T14:20:29;18.05;;;14.23;;
47089;SDS011;32840;52.516;13.294;2023-04-15T14:23:14;18.20;;;14.30;;
47089;SDS011;32840;52.516;13.294;2023-04-15T14:26:00;21.27;;;16.33;;
47089;SDS011;32840;52.516;13.294;2023-04-15T14:28:45;22.15;;;16.90;;
47089;SDS011;32840;52.516;13.294;2023-04-15T14:31:32;17.40;;;13.50;;
47089;SDS011;32840;52.516;13.294;2023-04-15T14:34:17;18.40;;;13.70;;
47089;SDS011;32840;52.516;13.294;2023-04-15T14:37:02;17.55;;;14.20;;
47089;SDS011;32840;52.516;13.294;2023-04-15T14:39:47;16.45;;;14.05;;
47089;SDS011;32840;52.516;13.294;2023-04-15T14:42:32;16.60;;;13.98;;
47089;SDS011;32840;52.516;13.294;2023-04-15T14:45:17;18.48;;;13.70;;
47089;SDS011;32840;52.516;13.294;2023-04-15T14:48:03;17.23;;;15.02;;
47089;SDS011;32840;52.516;13.294;2023-04-15T14:50:49;18.63;;;14.55;;
47089;SDS011;32840;52.516;13.294;2023-04-15T14:53:34;14.85;;;12.30;;
47089;SDS011;32840;52.516;13.294;2023-04-15T14:56:19;17.67;;;10.90;;
47089;SDS011;32840;52.516;13.294;2023-04-15T14:59:04;18.17;;;12.57;;
47089;SDS011;32840;52.516;13.294;2023-04-15T15:01:49;32.05;;;24.27;;
47089;SDS011;32840;52.516;13.294;2023-04-15T15:04:34;15.82;;;11.95;;
47089;SDS011;32840;52.516;13.294;2023-04-15T15:07:19;14.05;;;11.10;;
47089;SDS011;32840;52.516;13.294;2023-04-15T15:10:04;30.27;;;24.65;;
47089;SDS011;32840;52.516;13.294;2023-04-15T15:12:50;13.25;;;11.55;;
47089;SDS011;32840;52.516;13.294;2023-04-15T15:15:35;15.30;;;13.10;;
47089;SDS011;32840;52.516;13.294;2023-04-15T15:18:21;16.55;;;12.75;;
47089;SDS011;32840;52.516;13.294;2023-04-15T15:21:06;14.73;;;11.27;;
47089;SDS011;32840;52.516;13.294;2023-04-15T15:23:50;27.75;;;23.02;;
47089;SDS011;32840;52.516;13.294;2023-04-15T15:26:35;34.03;;;23.42;;
47089;SDS011;32840;52.516;13.294;2023-04-15T15:29:23;18.02;;;13.55;;
47089;SDS011;32840;52.516;13.294;2023-04-15T15:32:09;14.35;;;11.18;;
47089;SDS011;32840;52.516;13.294;2023-04-15T15:34:56;14.88;;;12.15;;
47089;SDS011;32840;52.516;13.294;2023-04-15T15:37:41;14.68;;;10.80;;
47089;SDS011;32840;52.516;13.294;2023-04-15T15:40:26;13.93;;;11.55;;
47089;SDS011;32840;52.516;13.294;2023-04-15T15:43:11;13.30;;;11.00;;
47089;SDS011;32840;52.516;13.294;2023-04-15T15:45:56;11.77;;;10.57;;
47089;SDS011;32840;52.516;13.294;2023-04-15T15:48:41;14.45;;;11.13;;
47089;SDS011;32840;52.516;13.294;2023-04-15T15:51:26;13.02;;;10.63;;
47089;SDS011;32840;52.516;13.294;2023-04-15T15:54:10;11.52;;;10.38;;
47089;SDS011;32840;52.516;13.294;2023-04-15T15:56:55;12.55;;;10.35;;
47089;SDS011;32840;52.516;13.294;2023-04-15T15:59:40;14.07;;;10.00;;
47089;SDS011;32840;52.516;13.294;2023-04-15T16:02:26;11.70;;;9.77;;
47089;SDS011;32840;52.516;13.294;2023-04-15T16:05:11;11.30;;;8.73;;